sensor_id;sensor_type;location;lat;lon;timestamp;temperature;humidity
23347;DHT22;36852;45.466;11.066;2023-08-01T00:01:36;27.70;99.90
23347;DHT22;36852;45.466;11.066;2023-08-01T00:04:05;27.70;99.90
23347;DHT22;36852;45.466;11.066;2023-08-01T00:59:48;27.50;99.90
23347;DHT22;36852;45.466;11.066;2023-08-01T01:02:16;27.40;99.90
23347;DHT22;36852;45.466;11.066;2023-08-01T01:04:44;27.40;99.90
23347;DHT22;36852;45.466;11.066;2023-08-01T01:07:12;27.40;99.90
23347;DHT22;36852;45.466;11.066;2023-08-01T01:09:41;27.40;99.90
23347;DHT22;36852;45.466;11.066;2023-08-01T01:12:08;27.40;99.90
23347;DHT22;36852;45.466;11.066;2023-08-01T01:14:56;27.30;99.90
23347;DHT22;36852;45.466;11.066;2023-08-01T01:17:25;27.40;99.90
23347;DHT22;36852;45.466;11.066;2023-08-01T01:19:59;27.30;99.90
23347;DHT22;36852;45.466;11.066;2023-08-01T01:22:27;27.30;99.90
23347;DHT22;36852;45.466;11.066;2023-08-01T01:24:57;27.30;99.90
23347;DHT22;36852;45.466;11.066;2023-08-01T01:27:27;27.30;99.90
23347;DHT22;36852;45.466;11.066;2023-08-01T01:29:57;27.20;99.90
23347;DHT22;36852;45.466;11.066;2023-08-01T01:32:25;27.20;99.90
23347;DHT22;36852;45.466;11.066;2023-08-01T01:34:54;27.20;99.90
23347;DHT22;36852;45.466;11.066;2023-08-01T01:37:23;27.10;99.90
23347;DHT22;36852;45.466;11.066;2023-08-01T01:39:53;27.10;99.90
23347;DHT22;36852;45.466;11.066;2023-08-01T01:42:21;27.10;99.90
23347;DHT22;36852;45.466;11.066;2023-08-01T01:44:48;27.10;99.90
23347;DHT22;36852;45.466;11.066;2023-08-01T01:47:19;27.10;99.90
23347;DHT22;36852;45.466;11.066;2023-08-01T01:49:47;27.10;99.90
23347;DHT22;36852;45.466;11.066;2023-08-01T01:52:15;27.10;99.90
23347;DHT22;36852;45.466;11.066;2023-08-01T01:54:43;27.10;99.90
23347;DHT22;36852;45.466;11.066;2023-08-01T01:57:14;27.10;99.90
23347;DHT22;36852;45.466;11.066;2023-08-01T01:59:43;27.10;99.90
23347;DHT22;36852;45.466;11.066;2023-08-01T02:02:11;27.10;99.90
23347;DHT22;36852;45.466;11.066;2023-08-01T02:04:41;27.00;99.90
23347;DHT22;36852;45.466;11.066;2023-08-01T02:07:09;27.00;99.90
23347;DHT22;36852;45.466;11.066;2023-08-01T02:09:40;27.00;99.90
23347;DHT22;36852;45.466;11.066;2023-08-01T02:12:08;27.00;99.90
23347;DHT22;36852;45.466;11.066;2023-08-01T02:14:37;27.00;99.90
23347;DHT22;36852;45.466;11.066;2023-08-01T02:17:06;27.00;99.90
23347;DHT22;36852;45.466;11.066;2023-08-01T02:19:35;26.90;99.90
23347;DHT22;36852;45.466;11.066;2023-08-01T02:22:06;26.90;99.90
23347;DHT22;36852;45.466;11.066;2023-08-01T02:24:35;26.90;99.90
23347;DHT22;36852;45.466;11.066;2023-08-01T02:27:04;26.90;99.90
23347;DHT22;36852;45.466;11.066;2023-08-01T02:29:32;26.90;99.90
23347;DHT22;36852;45.466;11.066;2023-08-01T02:32:00;26.90;99.90
23347;DHT22;36852;45.466;11.066;2023-08-01T02:34:28;26.90;99.90
23347;DHT22;36852;45.466;11.066;2023-08-01T02:36:56;26.80;99.90
23347;DHT22;36852;45.466;11.066;2023-08-01T02:39:25;26.80;99.90
23347;DHT22;36852;45.466;11.066;2023-08-01T02:41:55;26.70;99.90
23347;DHT22;36852;45.466;11.066;2023-08-01T02:44:23;26.70;99.90
23347;DHT22;36852;45.466;11.066;2023-08-01T02:46:51;26.70;99.90
23347;DHT22;36852;45.466;11.066;2023-08-01T02:49:19;26.70;99.90
23347;DHT22;36852;45.466;11.066;2023-08-01T02:51:48;26.70;99.90
23347;DHT22;36852;45.466;11.066;2023-08-01T02:54:15;26.70;99.90
23347;DHT22;36852;45.466;11.066;2023-08-01T02:56:43;26.70;99.90
23347;DHT22;36852;45.466;11.066;2023-08-01T02:59:11;26.70;99.90
23347;DHT22;36852;45.466;11.066;2023-08-01T03:01:39;26.70;99.90
23347;DHT22;36852;45.466;11.066;2023-08-01T03:06:53;26.70;99.90
23347;DHT22;36852;45.466;11.066;2023-08-01T03:09:21;26.70;99.90
23347;DHT22;36852;45.466;11.066;2023-08-01T03:11:49;26.70;99.90
23347;DHT22;36852;45.466;11.066;2023-08-01T03:14:17;26.70;99.90
23347;DHT22;36852;45.466;11.066;2023-08-01T03:16:45;26.70;99.90
23347;DHT22;36852;45.466;11.066;2023-08-01T03:19:13;26.70;99.90
23347;DHT22;36852;45.466;11.066;2023-08-01T03:21:41;26.70;99.90
23347;DHT22;36852;45.466;11.066;2023-08-01T03:24:09;26.70;99.90
23347;DHT22;36852;45.466;11.066;2023-08-01T03:26:38;26.70;99.90
23347;DHT22;36852;45.466;11.066;2023-08-01T03:29:08;26.70;99.90
23347;DHT22;36852;45.466;11.066;2023-08-01T03:31:36;26.70;99.90
23347;DHT22;36852;45.466;11.066;2023-08-01T03:34:04;26.70;99.90
23347;DHT22;36852;45.466;11.066;2023-08-01T03:36:32;26.70;99.90
23347;DHT22;36852;45.466;11.066;2023-08-01T03:39:01;26.60;99.90
23347;DHT22;36852;45.466;11.066;2023-08-01T03:41:31;26.60;99.90
23347;DHT22;36852;45.466;11.066;2023-08-01T03:43:59;26.60;99.90
23347;DHT22;36852;45.466;11.066;2023-08-01T03:46:27;26.60;99.90
23347;DHT22;36852;45.466;11.066;2023-08-01T03:48:55;26.60;99.90
23347;DHT22;36852;45.466;11.066;2023-08-01T03:51:23;26.70;99.90
23347;DHT22;36852;45.466;11.066;2023-08-01T03:53:51;26.70;99.90
23347;DHT22;36852;45.466;11.066;2023-08-01T03:56:20;26.70;99.90
23347;DHT22;36852;45.466;11.066;2023-08-01T03:58:48;26.70;99.90
23347;DHT22;36852;45.466;11.066;2023-08-01T04:01:16;26.70;99.90
23347;DHT22;36852;45.466;11.066;2023-08-01T04:03:44;26.80;99.90
23347;DHT22;36852;45.466;11.066;2023-08-01T04:06:12;26.70;99.90
23347;DHT22;36852;45.466;11.066;2023-08-01T04:08:44;26.70;99.90
23347;DHT22;36852;45.466;11.066;2023-08-01T04:11:12;26.70;99.90
23347;DHT22;36852;45.466;11.066;2023-08-01T04:13:40;26.70;99.90
23347;DHT22;36852;45.466;11.066;2023-08-01T04:16:08;26.70;99.90
23347;DHT22;36852;45.466;11.066;2023-08-01T04:18:36;26.80;99.90
23347;DHT22;36852;45.466;11.066;2023-08-01T04:21:06;26.80;99.90
23347;DHT22;36852;45.466;11.066;2023-08-01T04:23:35;26.80;99.90
23347;DHT22;36852;45.466;11.066;2023-08-01T04:26:03;26.90;99.90
23347;DHT22;36852;45.466;11.066;2023-08-01T04:28:33;26.90;99.90
23347;DHT22;36852;45.466;11.066;2023-08-01T04:31:01;26.90;99.90
23347;DHT22;36852;45.466;11.066;2023-08-01T04:33:29;26.90;99.90
23347;DHT22;36852;45.466;11.066;2023-08-01T04:36:00;26.90;99.90
23347;DHT22;36852;45.466;11.066;2023-08-01T04:38:30;26.90;99.90
23347;DHT22;36852;45.466;11.066;2023-08-01T04:40:57;26.90;99.90
23347;DHT22;36852;45.466;11.066;2023-08-01T04:43:26;26.80;99.90
23347;DHT22;36852;45.466;11.066;2023-08-01T04:45:54;26.80;99.90
23347;DHT22;36852;45.466;11.066;2023-08-01T04:48:22;26.80;99.90
23347;DHT22;36852;45.466;11.066;2023-08-01T04:50:49;26.80;99.90
23347;DHT22;36852;45.466;11.066;2023-08-01T04:53:17;26.80;99.90
23347;DHT22;36852;45.466;11.066;2023-08-01T04:55:45;26.80;99.90
23347;DHT22;36852;45.466;11.066;2023-08-01T04:58:13;26.80;99.90
23347;DHT22;36852;45.466;11.066;2023-08-01T05:00:43;26.80;99.90
23347;DHT22;36852;45.466;11.066;2023-08-01T05:03:11;26.90;99.90
23347;DHT22;36852;45.466;11.066;2023-08-01T05:05:40;26.90;99.90
23347;DHT22;36852;45.466;11.066;2023-08-01T05:08:09;26.90;99.90
23347;DHT22;36852;45.466;11.066;2023-08-01T05:10:36;27.00;99.90
23347;DHT22;36852;45.466;11.066;2023-08-01T05:13:08;27.00;99.90
23347;DHT22;36852;45.466;11.066;2023-08-01T05:15:36;27.10;99.90
23347;DHT22;36852;45.466;11.066;2023-08-01T05:18:06;27.10;99.90
23347;DHT22;36852;45.466;11.066;2023-08-01T05:20:34;27.10;99.90
23347;DHT22;36852;45.466;11.066;2023-08-01T05:23:01;27.10;99.90
23347;DHT22;36852;45.466;11.066;2023-08-01T05:25:30;27.10;99.90
23347;DHT22;36852;45.466;11.066;2023-08-01T05:27:58;27.10;99.90
23347;DHT22;36852;45.466;11.066;2023-08-01T05:30:25;27.20;99.90
23347;DHT22;36852;45.466;11.066;2023-08-01T05:32:53;27.30;99.90
23347;DHT22;36852;45.466;11.066;2023-08-01T05:35:21;27.40;99.90
23347;DHT22;36852;45.466;11.066;2023-08-01T05:37:49;27.40;99.90
23347;DHT22;36852;45.466;11.066;2023-08-01T05:40:17;27.40;99.90
23347;DHT22;36852;45.466;11.066;2023-08-01T05:42:45;27.40;99.90
23347;DHT22;36852;45.466;11.066;2023-08-01T05:45:14;27.40;99.90
23347;DHT22;36852;45.466;11.066;2023-08-01T05:47:42;27.40;99.90
23347;DHT22;36852;45.466;11.066;2023-08-01T05:50:10;27.40;99.90
23347;DHT22;36852;45.466;11.066;2023-08-01T05:52:40;27.40;99.90
23347;DHT22;36852;45.466;11.066;2023-08-01T05:55:08;27.40;99.90
23347;DHT22;36852;45.466;11.066;2023-08-01T05:57:37;27.30;99.90
23347;DHT22;36852;45.466;11.066;2023-08-01T06:00:06;27.30;99.90
23347;DHT22;36852;45.466;11.066;2023-08-01T06:02:39;27.40;99.90
23347;DHT22;36852;45.466;11.066;2023-08-01T06:05:08;27.30;99.90
23347;DHT22;36852;45.466;11.066;2023-08-01T06:07:39;27.30;99.90
23347;DHT22;36852;45.466;11.066;2023-08-01T06:10:07;27.30;99.90
23347;DHT22;36852;45.466;11.066;2023-08-01T06:12:36;27.30;99.90
23347;DHT22;36852;45.466;11.066;2023-08-01T06:15:05;27.30;99.90
23347;DHT22;36852;45.466;11.066;2023-08-01T06:17:34;27.40;99.90
23347;DHT22;36852;45.466;11.066;2023-08-01T06:20:02;27.40;99.90
23347;DHT22;36852;45.466;11.066;2023-08-01T06:22:33;27.40;99.90
23347;DHT22;36852;45.466;11.066;2023-08-01T06:25:01;27.40;99.90
23347;DHT22;36852;45.466;11.066;2023-08-01T06:27:28;27.40;99.90
23347;DHT22;36852;45.466;11.066;2023-08-01T06:29:56;27.40;99.90
23347;DHT22;36852;45.466;11.066;2023-08-01T06:32:24;27.40;99.90
23347;DHT22;36852;45.466;11.066;2023-08-01T06:34:52;27.40;99.90
23347;DHT22;36852;45.466;11.066;2023-08-01T06:37:20;27.40;99.90
23347;DHT22;36852;45.466;11.066;2023-08-01T06:39:48;27.50;99.90
23347;DHT22;36852;45.466;11.066;2023-08-01T06:42:16;27.50;99.90
23347;DHT22;36852;45.466;11.066;2023-08-01T06:44:45;27.50;99.90
23347;DHT22;36852;45.466;11.066;2023-08-01T06:47:13;27.50;99.90
23347;DHT22;36852;45.466;11.066;2023-08-01T06:49:42;27.50;99.90
23347;DHT22;36852;45.466;11.066;2023-08-01T06:52:10;27.60;99.90
23347;DHT22;36852;45.466;11.066;2023-08-01T06:54:38;27.60;99.90
23347;DHT22;36852;45.466;11.066;2023-08-01T06:57:07;27.60;99.90
23347;DHT22;36852;45.466;11.066;2023-08-01T06:59:35;27.60;99.90
23347;DHT22;36852;45.466;11.066;2023-08-01T07:02:04;27.60;99.90
23347;DHT22;36852;45.466;11.066;2023-08-01T07:04:32;27.60;99.90
23347;DHT22;36852;45.466;11.066;2023-08-01T07:07:01;27.60;99.90
23347;DHT22;36852;45.466;11.066;2023-08-01T07:09:30;27.60;99.90
23347;DHT22;36852;45.466;11.066;2023-08-01T07:11:58;27.60;99.90
23347;DHT22;36852;45.466;11.066;2023-08-01T07:14:26;27.60;99.90
23347;DHT22;36852;45.466;11.066;2023-08-01T07:16:55;27.60;99.90
23347;DHT22;36852;45.466;11.066;2023-08-01T07:19:22;27.60;99.90
23347;DHT22;36852;45.466;11.066;2023-08-01T07:21:51;27.60;99.90
23347;DHT22;36852;45.466;11.066;2023-08-01T07:24:19;27.60;99.90
23347;DHT22;36852;45.466;11.066;2023-08-01T07:26:47;27.70;99.90
23347;DHT22;36852;45.466;11.066;2023-08-01T07:29:15;27.70;99.90
23347;DHT22;36852;45.466;11.066;2023-08-01T07:31:44;27.80;99.90
23347;DHT22;36852;45.466;11.066;2023-08-01T07:34:13;27.80;99.90
23347;DHT22;36852;45.466;11.066;2023-08-01T07:36:48;27.90;99.90
23347;DHT22;36852;45.466;11.066;2023-08-01T07:39:16;27.90;99.90
23347;DHT22;36852;45.466;11.066;2023-08-01T07:41:45;27.90;99.90
23347;DHT22;36852;45.466;11.066;2023-08-01T07:44:13;28.00;99.90
23347;DHT22;36852;45.466;11.066;2023-08-01T07:46:41;28.00;99.90
23347;DHT22;36852;45.466;11.066;2023-08-01T07:49:09;28.10;99.90
23347;DHT22;36852;45.466;11.066;2023-08-01T07:51:38;28.10;99.90
23347;DHT22;36852;45.466;11.066;2023-08-01T07:54:06;28.10;99.90
23347;DHT22;36852;45.466;11.066;2023-08-01T07:56:34;28.20;99.90
23347;DHT22;36852;45.466;11.066;2023-08-01T07:59:02;28.20;99.90
23347;DHT22;36852;45.466;11.066;2023-08-01T08:01:30;28.30;99.90
23347;DHT22;36852;45.466;11.066;2023-08-01T08:03:58;28.30;99.90
23347;DHT22;36852;45.466;11.066;2023-08-01T08:06:27;28.40;99.90
23347;DHT22;36852;45.466;11.066;2023-08-01T08:08:55;28.40;99.90
23347;DHT22;36852;45.466;11.066;2023-08-01T08:11:23;28.40;99.90
23347;DHT22;36852;45.466;11.066;2023-08-01T08:13:51;28.40;99.90
23347;DHT22;36852;45.466;11.066;2023-08-01T08:16:19;28.30;99.90
23347;DHT22;36852;45.466;11.066;2023-08-01T08:18:47;28.30;99.90
23347;DHT22;36852;45.466;11.066;2023-08-01T08:21:16;28.30;99.90
23347;DHT22;36852;45.466;11.066;2023-08-01T08:23:44;28.40;99.90
23347;DHT22;36852;45.466;11.066;2023-08-01T08:26:12;28.40;99.90
23347;DHT22;36852;45.466;11.066;2023-08-01T08:28:40;28.40;99.90
23347;DHT22;36852;45.466;11.066;2023-08-01T08:31:09;28.50;99.90
23347;DHT22;36852;45.466;11.066;2023-08-01T08:33:37;28.50;99.90
23347;DHT22;36852;45.466;11.066;2023-08-01T08:36:06;28.70;99.90
23347;DHT22;36852;45.466;11.066;2023-08-01T08:38:34;28.70;99.90
23347;DHT22;36852;45.466;11.066;2023-08-01T08:41:18;28.80;99.90
23347;DHT22;36852;45.466;11.066;2023-08-01T08:43:42;28.90;99.90
23347;DHT22;36852;45.466;11.066;2023-08-01T08:46:12;28.90;99.90
23347;DHT22;36852;45.466;11.066;2023-08-01T08:48:40;28.90;99.90
23347;DHT22;36852;45.466;11.066;2023-08-01T08:51:09;28.90;99.90
23347;DHT22;36852;45.466;11.066;2023-08-01T08:53:37;28.90;99.90
23347;DHT22;36852;45.466;11.066;2023-08-01T08:56:08;28.90;99.90
23347;DHT22;36852;45.466;11.066;2023-08-01T08:58:37;29.00;99.90
23347;DHT22;36852;45.466;11.066;2023-08-01T09:01:07;29.00;99.90
23347;DHT22;36852;45.466;11.066;2023-08-01T09:03:35;29.10;99.90
23347;DHT22;36852;45.466;11.066;2023-08-01T09:06:12;29.10;99.90
23347;DHT22;36852;45.466;11.066;2023-08-01T09:09:03;29.10;99.90
23347;DHT22;36852;45.466;11.066;2023-08-01T09:11:37;29.20;99.90
23347;DHT22;36852;45.466;11.066;2023-08-01T09:14:01;29.20;99.90
23347;DHT22;36852;45.466;11.066;2023-08-01T09:16:29;29.30;99.90
23347;DHT22;36852;45.466;11.066;2023-08-01T09:19:05;29.30;99.90
23347;DHT22;36852;45.466;11.066;2023-08-01T09:21:36;29.30;99.90
23347;DHT22;36852;45.466;11.066;2023-08-01T09:24:16;29.40;99.90
23347;DHT22;36852;45.466;11.066;2023-08-01T09:26:45;29.30;99.90
23347;DHT22;36852;45.466;11.066;2023-08-01T09:29:15;29.40;99.90
23347;DHT22;36852;45.466;11.066;2023-08-01T09:31:46;29.40;99.90
23347;DHT22;36852;45.466;11.066;2023-08-01T09:34:20;29.40;99.90
23347;DHT22;36852;45.466;11.066;2023-08-01T09:36:48;29.40;99.90
23347;DHT22;36852;45.466;11.066;2023-08-01T09:39:18;29.50;99.90
23347;DHT22;36852;45.466;11.066;2023-08-01T09:41:58;29.50;99.90
23347;DHT22;36852;45.466;11.066;2023-08-01T09:44:27;29.50;99.90
23347;DHT22;36852;45.466;11.066;2023-08-01T09:47:05;29.50;99.90
23347;DHT22;36852;45.466;11.066;2023-08-01T09:49:46;29.50;99.90
23347;DHT22;36852;45.466;11.066;2023-08-01T09:52:08;29.60;99.90
23347;DHT22;36852;45.466;11.066;2023-08-01T09:54:36;29.60;99.90
23347;DHT22;36852;45.466;11.066;2023-08-01T09:57:07;29.60;99.90
23347;DHT22;36852;45.466;11.066;2023-08-01T09:59:36;29.70;99.90
23347;DHT22;36852;45.466;11.066;2023-08-01T10:02:07;29.70;99.90
23347;DHT22;36852;45.466;11.066;2023-08-01T10:04:38;29.80;99.90
23347;DHT22;36852;45.466;11.066;2023-08-01T10:07:11;29.90;99.90
23347;DHT22;36852;45.466;11.066;2023-08-01T10:09:40;30.00;99.90
23347;DHT22;36852;45.466;11.066;2023-08-01T10:14:56;30.20;99.90
23347;DHT22;36852;45.466;11.066;2023-08-01T10:17:26;30.30;99.90
23347;DHT22;36852;45.466;11.066;2023-08-01T10:19:55;30.40;99.90
23347;DHT22;36852;45.466;11.066;2023-08-01T10:22:24;30.50;99.90
23347;DHT22;36852;45.466;11.066;2023-08-01T10:24:53;30.50;99.90
23347;DHT22;36852;45.466;11.066;2023-08-01T10:27:21;30.50;99.90
23347;DHT22;36852;45.466;11.066;2023-08-01T10:29:59;30.40;99.90
23347;DHT22;36852;45.466;11.066;2023-08-01T10:32:35;30.40;99.90
23347;DHT22;36852;45.466;11.066;2023-08-01T10:35:04;30.40;99.90
23347;DHT22;36852;45.466;11.066;2023-08-01T10:37:44;30.30;99.90
23347;DHT22;36852;45.466;11.066;2023-08-01T10:40:14;30.10;99.90
23347;DHT22;36852;45.466;11.066;2023-08-01T10:42:45;30.00;99.90
23347;DHT22;36852;45.466;11.066;2023-08-01T10:45:22;29.80;99.90
23347;DHT22;36852;45.466;11.066;2023-08-01T10:47:50;29.80;99.90
23347;DHT22;36852;45.466;11.066;2023-08-01T10:50:18;29.80;99.90
23347;DHT22;36852;45.466;11.066;2023-08-01T10:52:47;29.70;99.90
23347;DHT22;36852;45.466;11.066;2023-08-01T10:55:14;29.70;99.90
23347;DHT22;36852;45.466;11.066;2023-08-01T10:57:49;29.70;99.90
23347;DHT22;36852;45.466;11.066;2023-08-01T11:00:17;29.80;99.90
23347;DHT22;36852;45.466;11.066;2023-08-01T11:02:50;29.80;99.90
23347;DHT22;36852;45.466;11.066;2023-08-01T11:05:20;29.90;99.90
23347;DHT22;36852;45.466;11.066;2023-08-01T11:07:59;30.00;99.90
23347;DHT22;36852;45.466;11.066;2023-08-01T11:10:30;30.00;99.90
23347;DHT22;36852;45.466;11.066;2023-08-01T11:12:59;30.20;99.90
23347;DHT22;36852;45.466;11.066;2023-08-01T11:15:27;30.30;99.90
23347;DHT22;36852;45.466;11.066;2023-08-01T11:17:55;30.40;99.90
23347;DHT22;36852;45.466;11.066;2023-08-01T11:20:24;30.40;99.90
23347;DHT22;36852;45.466;11.066;2023-08-01T11:22:57;30.50;99.90
23347;DHT22;36852;45.466;11.066;2023-08-01T11:28:06;30.70;99.90
23347;DHT22;36852;45.466;11.066;2023-08-01T11:30:34;30.60;99.90
23347;DHT22;36852;45.466;11.066;2023-08-01T11:33:18;30.60;99.90
23347;DHT22;36852;45.466;11.066;2023-08-01T11:35:54;30.60;99.90
23347;DHT22;36852;45.466;11.066;2023-08-01T11:38:27;30.50;99.90
23347;DHT22;36852;45.466;11.066;2023-08-01T11:41:03;30.50;99.90
23347;DHT22;36852;45.466;11.066;2023-08-01T11:43:45;30.40;99.90
23347;DHT22;36852;45.466;11.066;2023-08-01T11:46:09;30.40;99.90
23347;DHT22;36852;45.466;11.066;2023-08-01T11:48:38;30.40;99.90
23347;DHT22;36852;45.466;11.066;2023-08-01T11:51:06;30.40;99.90
23347;DHT22;36852;45.466;11.066;2023-08-01T11:53:34;30.40;99.90
23347;DHT22;36852;45.466;11.066;2023-08-01T11:56:05;30.40;99.90
23347;DHT22;36852;45.466;11.066;2023-08-01T11:58:41;30.30;99.90
23347;DHT22;36852;45.466;11.066;2023-08-01T12:01:12;30.30;99.90
23347;DHT22;36852;45.466;11.066;2023-08-01T12:03:54;30.30;99.90
23347;DHT22;36852;45.466;11.066;2023-08-01T12:06:23;30.20;99.90
23347;DHT22;36852;45.466;11.066;2023-08-01T12:08:52;30.10;99.90
23347;DHT22;36852;45.466;11.066;2023-08-01T12:11:25;30.00;99.90
23347;DHT22;36852;45.466;11.066;2023-08-01T12:14:13;29.90;99.90
23347;DHT22;36852;45.466;11.066;2023-08-01T12:16:42;29.90;99.90
23347;DHT22;36852;45.466;11.066;2023-08-01T12:19:17;29.90;99.90
23347;DHT22;36852;45.466;11.066;2023-08-01T12:21:47;29.90;99.90
23347;DHT22;36852;45.466;11.066;2023-08-01T12:24:15;29.90;99.90
23347;DHT22;36852;45.466;11.066;2023-08-01T12:26:43;29.90;99.90
23347;DHT22;36852;45.466;11.066;2023-08-01T12:29:11;29.90;99.90
23347;DHT22;36852;45.466;11.066;2023-08-01T12:31:39;30.00;99.90
23347;DHT22;36852;45.466;11.066;2023-08-01T12:34:07;30.10;99.90
23347;DHT22;36852;45.466;11.066;2023-08-01T12:36:35;30.20;99.90
23347;DHT22;36852;45.466;11.066;2023-08-01T12:39:03;30.30;99.90
23347;DHT22;36852;45.466;11.066;2023-08-01T12:41:32;30.40;99.90
23347;DHT22;36852;45.466;11.066;2023-08-01T12:44:00;30.40;99.90
23347;DHT22;36852;45.466;11.066;2023-08-01T12:46:28;30.50;99.90
23347;DHT22;36852;45.466;11.066;2023-08-01T12:48:56;30.50;99.90
23347;DHT22;36852;45.466;11.066;2023-08-01T12:51:24;30.50;99.90
23347;DHT22;36852;45.466;11.066;2023-08-01T12:53:51;30.60;99.90
23347;DHT22;36852;45.466;11.066;2023-08-01T12:56:20;30.70;99.90
23347;DHT22;36852;45.466;11.066;2023-08-01T12:58:47;30.80;99.90
23347;DHT22;36852;45.466;11.066;2023-08-01T13:01:15;30.80;99.90
23347;DHT22;36852;45.466;11.066;2023-08-01T13:03:43;30.90;99.90
23347;DHT22;36852;45.466;11.066;2023-08-01T13:06:12;30.90;99.90
23347;DHT22;36852;45.466;11.066;2023-08-01T13:08:42;31.00;99.90
23347;DHT22;36852;45.466;11.066;2023-08-01T13:11:14;30.90;99.60
23347;DHT22;36852;45.466;11.066;2023-08-01T13:13:42;30.90;99.30
23347;DHT22;36852;45.466;11.066;2023-08-01T13:16:11;30.90;99.70
23347;DHT22;36852;45.466;11.066;2023-08-01T13:22:01;31.10;99.90
23347;DHT22;36852;45.466;11.066;2023-08-01T13:24:29;31.30;99.90
23347;DHT22;36852;45.466;11.066;2023-08-01T13:26:58;31.30;99.90
23347;DHT22;36852;45.466;11.066;2023-08-01T13:29:26;31.10;99.90
23347;DHT22;36852;45.466;11.066;2023-08-01T13:31:54;31.00;99.70
23347;DHT22;36852;45.466;11.066;2023-08-01T13:34:22;31.10;99.90
23347;DHT22;36852;45.466;11.066;2023-08-01T13:36:50;31.10;99.80
23347;DHT22;36852;45.466;11.066;2023-08-01T13:39:18;31.20;99.00
23347;DHT22;36852;45.466;11.066;2023-08-01T13:41:47;31.20;98.40
23347;DHT22;36852;45.466;11.066;2023-08-01T13:44:15;31.20;99.20
23347;DHT22;36852;45.466;11.066;2023-08-01T13:46:43;31.10;99.70
23347;DHT22;36852;45.466;11.066;2023-08-01T13:49:11;31.20;99.90
23347;DHT22;36852;45.466;11.066;2023-08-01T13:51:40;31.20;99.90
23347;DHT22;36852;45.466;11.066;2023-08-01T13:54:08;31.20;98.70
23347;DHT22;36852;45.466;11.066;2023-08-01T13:56:38;31.20;99.20
23347;DHT22;36852;45.466;11.066;2023-08-01T13:59:06;31.20;97.90
23347;DHT22;36852;45.466;11.066;2023-08-01T14:01:34;31.10;97.90
23347;DHT22;36852;45.466;11.066;2023-08-01T14:04:04;31.10;98.50
23347;DHT22;36852;45.466;11.066;2023-08-01T14:06:31;31.10;98.30
23347;DHT22;36852;45.466;11.066;2023-08-01T14:08:59;31.20;99.00
23347;DHT22;36852;45.466;11.066;2023-08-01T14:11:28;31.30;98.80
23347;DHT22;36852;45.466;11.066;2023-08-01T14:13:56;31.20;97.90
23347;DHT22;36852;45.466;11.066;2023-08-01T14:16:25;31.20;95.80
23347;DHT22;36852;45.466;11.066;2023-08-01T14:18:53;31.40;96.00
23347;DHT22;36852;45.466;11.066;2023-08-01T14:21:21;31.60;96.30
23347;DHT22;36852;45.466;11.066;2023-08-01T14:23:50;31.60;96.50
23347;DHT22;36852;45.466;11.066;2023-08-01T14:26:19;31.60;95.40
23347;DHT22;36852;45.466;11.066;2023-08-01T14:28:46;31.50;95.50
23347;DHT22;36852;45.466;11.066;2023-08-01T14:31:14;31.40;95.50
23347;DHT22;36852;45.466;11.066;2023-08-01T14:33:44;31.20;96.30
23347;DHT22;36852;45.466;11.066;2023-08-01T14:36:13;31.30;96.60
23347;DHT22;36852;45.466;11.066;2023-08-01T14:38:41;31.20;96.60
23347;DHT22;36852;45.466;11.066;2023-08-01T14:41:09;31.30;96.00
23347;DHT22;36852;45.466;11.066;2023-08-01T14:43:39;31.30;95.30
23347;DHT22;36852;45.466;11.066;2023-08-01T14:46:08;31.40;94.60
23347;DHT22;36852;45.466;11.066;2023-08-01T14:48:36;31.20;95.50
23347;DHT22;36852;45.466;11.066;2023-08-01T14:51:06;31.20;95.20
23347;DHT22;36852;45.466;11.066;2023-08-01T14:53:36;31.10;95.90
23347;DHT22;36852;45.466;11.066;2023-08-01T14:56:03;31.00;95.90
23347;DHT22;36852;45.466;11.066;2023-08-01T14:58:34;31.00;96.00
23347;DHT22;36852;45.466;11.066;2023-08-01T15:01:09;31.10;96.00
23347;DHT22;36852;45.466;11.066;2023-08-01T15:03:35;31.40;96.00
23347;DHT22;36852;45.466;11.066;2023-08-01T15:06:08;31.50;95.30
23347;DHT22;36852;45.466;11.066;2023-08-01T15:08:39;31.60;95.20
23347;DHT22;36852;45.466;11.066;2023-08-01T15:11:08;31.70;94.70
23347;DHT22;36852;45.466;11.066;2023-08-01T15:13:36;31.70;95.50
23347;DHT22;36852;45.466;11.066;2023-08-01T15:16:10;31.70;95.20
23347;DHT22;36852;45.466;11.066;2023-08-01T15:18:42;31.70;95.00
23347;DHT22;36852;45.466;11.066;2023-08-01T15:21:10;31.80;95.10
23347;DHT22;36852;45.466;11.066;2023-08-01T15:23:38;31.80;94.80
23347;DHT22;36852;45.466;11.066;2023-08-01T15:26:06;31.70;94.80
23347;DHT22;36852;45.466;11.066;2023-08-01T15:28:34;31.60;94.60
23347;DHT22;36852;45.466;11.066;2023-08-01T15:31:05;31.50;95.00
23347;DHT22;36852;45.466;11.066;2023-08-01T15:33:36;31.10;95.70
23347;DHT22;36852;45.466;11.066;2023-08-01T15:36:05;30.90;96.30
23347;DHT22;36852;45.466;11.066;2023-08-01T15:38:36;30.80;96.20
23347;DHT22;36852;45.466;11.066;2023-08-01T15:41:05;30.60;96.30
23347;DHT22;36852;45.466;11.066;2023-08-01T15:43:39;30.70;97.10
23347;DHT22;36852;45.466;11.066;2023-08-01T15:46:08;30.70;96.50
23347;DHT22;36852;45.466;11.066;2023-08-01T15:48:39;30.80;96.80
23347;DHT22;36852;45.466;11.066;2023-08-01T15:51:08;30.80;96.90
23347;DHT22;36852;45.466;11.066;2023-08-01T15:53:39;30.60;97.30
23347;DHT22;36852;45.466;11.066;2023-08-01T15:56:08;30.40;97.40
23347;DHT22;36852;45.466;11.066;2023-08-01T15:58:39;30.40;97.30
23347;DHT22;36852;45.466;11.066;2023-08-01T16:01:07;30.30;97.80
23347;DHT22;36852;45.466;11.066;2023-08-01T16:03:37;30.30;97.50
23347;DHT22;36852;45.466;11.066;2023-08-01T16:06:05;30.40;97.70
23347;DHT22;36852;45.466;11.066;2023-08-01T16:08:34;30.50;97.30
23347;DHT22;36852;45.466;11.066;2023-08-01T16:11:02;30.60;97.20
23347;DHT22;36852;45.466;11.066;2023-08-01T16:13:30;30.70;97.00
23347;DHT22;36852;45.466;11.066;2023-08-01T16:16:01;30.80;96.90
23347;DHT22;36852;45.466;11.066;2023-08-01T16:18:29;30.80;96.90
23347;DHT22;36852;45.466;11.066;2023-08-01T16:20:57;30.90;97.10
23347;DHT22;36852;45.466;11.066;2023-08-01T16:23:25;30.90;97.30
23347;DHT22;36852;45.466;11.066;2023-08-01T16:25:53;30.90;96.80
23347;DHT22;36852;45.466;11.066;2023-08-01T16:28:21;30.90;97.30
23347;DHT22;36852;45.466;11.066;2023-08-01T16:30:53;30.80;97.60
23347;DHT22;36852;45.466;11.066;2023-08-01T16:33:22;30.70;97.60